Time;durP1;ratioP1;P1;durP2;ratioP2;P2;SDS_P1;SDS_P2;PMS_P1;PMS_P2;Temp;Humidity;BMP_temperature;BMP_pressure;BME280_temperature;BME280_humidity;BME280_pressure;Samples;Min_cycle;Max_cycle;Signal;HPM_P1;HPM_P2
2023/05/09 00:02:21;;;;;;;;;;;;;;;;;;5064763;28;20265;-62
2023/05/09 00:04:46;;;;;;;;;;;;;;;;;;5061584;28;19921;-61
2023/05/09 00:07:12;;;;;;;;;;;;;;;;;;5040111;28;19921;-61
2023/05/09 00:09:38;;;;;;;;;;;;;;;;;;5056816;28;19924;-61
2023/05/09 00:12:04;;;;;;;;;;;;;;;;;;5054554;28;19967;-62
2023/05/09 00:14:32;;;;;;;;;;;;;;;;;;5062917;28;19921;-61
2023/05/09 00:16:58;;;;;;;;;;;;;;;;;;5065908;28;19920;-62
2023/05/09 00:19:24;;;;;;;;;;;;;;;;;;5067116;28;19927;-61
2023/05/09 00:21:50;;;;;;;;;;;;;;;;;;5068992;28;19924;-61
2023/05/09 00:24:16;;;;;;;;;;;;;;;;;;5068835;28;19952;-61
2023/05/09 00:26:42;;;;;;;;;;;;;;;;;;5061535;28;20339;-62
2023/05/09 00:29:08;;;;;;;;;;;;;;;;;;5068862;28;19924;-62
2023/05/09 00:31:35;;;;;;;;;;;;;;;;;;5063781;28;19924;-62
2023/05/09 00:34:01;;;;;;;;;;;;;;;;;;5061828;28;20289;-62
2023/05/09 00:36:26;;;;;;;;;;;;;;;;;;5062259;28;20012;-62
2023/05/09 00:38:52;;;;;;;;;;;;;;;;;;5068717;28;19928;-61
2023/05/09 00:41:18;;;;;;;;;;;;;;;;;;5068006;28;20431;-61
2023/05/09 00:43:44;;;;;;;;;;;;;;;;;;5057372;28;19924;-61
2023/05/09 00:46:10;;;;;;;;;;;;;;;;;;5063155;28;19927;-61
2023/05/09 00:48:36;;;;;;;;;;;;;;;;;;5068757;28;20025;-61
2023/05/09 00:51:03;;;;;;;;;;;;;;;;;;5070037;28;20007;-61
2023/05/09 00:53:29;;;;;;;;;;;;;;;;;;5069614;28;19924;-61
2023/05/09 00:55:55;;;;;;;;;;;;;;;;;;5068757;28;20231;-60
2023/05/09 00:58:21;;;;;;;;;;;;;;;;;;5069459;28;19921;-61
2023/05/09 01:00:47;;;;;;;;;;;;;;;;;;5060711;28;19999;-61
2023/05/09 01:03:13;;;;;;;;;;;;;;;;;;5069090;28;19928;-61
2023/05/09 01:05:39;;;;;;;;;;;;;;;;;;5064688;28;19924;-61
2023/05/09 01:08:05;;;;;;;;;;;;;;;;;;5066884;28;20366;-61
2023/05/09 01:10:31;;;;;;;;;;;;;;;;;;5066524;28;19921;-61
2023/05/09 01:12:57;;;;;;;;;;;;;;;;;;5066634;28;19924;-61
2023/05/09 01:15:23;;;;;;;;;;;;;;;;;;5067230;28;20974;-61
2023/05/09 01:17:49;;;;;;;;;;;;;;;;;;5064850;28;20019;-61
2023/05/09 01:20:15;;;;;;;;;;;;;;;;;;5069000;28;20077;-61
2023/05/09 01:22:41;;;;;;;;;;;;;;;;;;5071280;28;19925;-61
2023/05/09 01:25:08;;;;;;;;;;;;;;;;;;5072238;28;19920;-61
2023/05/09 01:27:34;;;;;;;;;;;;;;;;;;5073520;28;19924;-61
2023/05/09 01:30:00;;;;;;;;;;;;;;;;;;5065189;28;20396;-61
2023/05/09 01:32:26;;;;;;;;;;;;;;;;;;5056824;28;19921;-61
2023/05/09 01:34:51;;;;;;;;;;;;;;;;;;5065011;28;19925;-62
2023/05/09 01:37:17;;;;;;;;;;;;;;;;;;5054909;28;19924;-61
2023/05/09 01:39:43;;;;;;;;;;;;;;;;;;5063981;28;19997;-61
2023/05/09 01:42:09;;;;;;;;;;;;;;;;;;5070759;28;20014;-61
2023/05/09 01:44:35;;;;;;;;;;;;;;;;;;5071525;28;19931;-61
2023/05/09 01:47:01;;;;;;;;;;;;;;;;;;5067445;28;19924;-62
2023/05/09 01:49:27;;;;;;;;;;;;;;;;;;5065960;28;19971;-62
2023/05/09 01:51:53;;;;;;;;;;;;;;;;;;5068329;28;19940;-61
2023/05/09 01:54:19;;;;;;;;;;;;;;;;;;5064386;28;20646;-61
2023/05/09 01:56:45;;;;;;;;;;;;;;;;;;5061208;28;19924;-61
2023/05/09 01:59:14;;;;;;;;;;;;;;;;;;5061791;28;20342;-61
2023/05/09 02:01:40;;;;;;;;;;;;;;;;;;5063302;28;19950;-61
2023/05/09 02:04:06;;;;;;;;;;;;;;;;;;5067920;28;19935;-61
2023/05/09 02:06:32;;;;;;;;;;;;;;;;;;5063407;28;20394;-61
2023/05/09 02:08:58;;;;;;;;;;;;;;;;;;5064373;28;19927;-61
2023/05/09 02:11:24;;;;;;;;;;;;;;;;;;5061245;28;19935;-61
2023/05/09 02:13:50;;;;;;;;;;;;;;;;;;5071208;28;20369;-61
2023/05/09 02:16:17;;;;;;;;;;;;;;;;;;5058985;28;19920;-61
2023/05/09 02:18:43;;;;;;;;;;;;;;;;;;5067037;28;19955;-61
2023/05/09 02:21:09;;;;;;;;;;;;;;;;;;5074096;28;19924;-61
2023/05/09 02:23:35;;;;;;;;;;;;;;;;;;5060733;28;19979;-62
2023/05/09 02:26:00;;;;;;;;;;;;;;;;;;5072704;28;20031;-61
2023/05/09 02:28:26;;;;;;;;;;;;;;;;;;5054155;28;19932;-62
2023/05/09 02:30:52;;;;;;;;;;;;;;;;;;5065203;28;19928;-61
2023/05/09 02:33:18;;;;;;;;;;;;;;;;;;5055749;28;19924;-62
2023/05/09 02:35:45;;;;;;;;;;;;;;;;;;5059236;28;19971;-61
2023/05/09 02:38:11;;;;;;;;;;;;;;;;;;5060786;28;20450;-61
2023/05/09 02:40:36;;;;;;;;;;;;;;;;;;5059017;28;20047;-61
2023/05/09 02:43:03;;;;;;;;;;;;;;;;;;5071089;28;19924;-61
2023/05/09 02:45:28;;;;;;;;;;;;;;;;;;5067146;28;19928;-61
2023/05/09 02:47:54;;;;;;;;;;;;;;;;;;5070794;28;19932;-61
2023/05/09 02:50:20;;;;;;;;;;;;;;;;;;5068330;28;19920;-61
2023/05/09 02:52:46;;;;;;;;;;;;;;;;;;5061897;28;19921;-61
2023/05/09 02:55:12;;;;;;;;;;;;;;;;;;5069905;28;19931;-62
2023/05/09 02:57:38;;;;;;;;;;;;;;;;;;5070062;28;19925;-60
2023/05/09 03:00:13;;;;;;;;;;;;;;;;;;5066823;28;20335;-62
2023/05/09 03:02:39;;;;;;;;;;;;;;;;;;5054580;28;19924;-60
2023/05/09 03:05:05;;;;;;;;;;;;;;;;;;5069913;28;19985;-61
2023/05/09 03:07:31;;;;;;;;;;;;;;;;;;5064316;28;20345;-62
2023/05/09 03:09:56;;;;;;;;;;;;;;;;;;5065028;28;19927;-62
2023/05/09 03:12:22;;;;;;;;;;;;;;;;;;5070243;28;20005;-62
2023/05/09 03:14:48;;;;;;;;;;;;;;;;;;5067145;28;19928;-61
2023/05/09 03:17:20;;;;;;;;;;;;;;;;;;5052057;28;19925;-60
2023/05/09 03:19:45;;;;;;;;;;;;;;;;;;5069392;28;19967;-60
2023/05/09 03:22:11;;;;;;;;;;;;;;;;;;5069112;28;19987;-61
2023/05/09 03:24:37;;;;;;;;;;;;;;;;;;5064814;28;20376;-61
2023/05/09 03:27:03;;;;;;;;;;;;;;;;;;5071071;28;20394;-61
2023/05/09 03:29:29;;;;;;;;;;;;;;;;;;5052094;28;20018;-61
2023/05/09 03:31:55;;;;;;;;;;;;;;;;;;5069811;28;19920;-61
2023/05/09 03:34:21;;;;;;;;;;;;;;;;;;5061914;28;19928;-61
2023/05/09 03:36:47;;;;;;;;;;;;;;;;;;5056673;28;19924;-61
2023/05/09 03:39:13;;;;;;;;;;;;;;;;;;5066366;28;19925;-61
2023/05/09 03:41:39;;;;;;;;;;;;;;;;;;5066853;28;19925;-61
2023/05/09 03:44:05;;;;;;;;;;;;;;;;;;5070547;28;20357;-60
2023/05/09 03:46:31;;;;;;;;;;;;;;;;;;5059040;28;19960;-61
2023/05/09 03:48:57;;;;;;;;;;;;;;;;;;5065481;28;20019;-61
2023/05/09 03:51:22;;;;;;;;;;;;;;;;;;5069698;28;20003;-61
2023/05/09 03:53:48;;;;;;;;;;;;;;;;;;5064529;28;20293;-61
2023/05/09 03:56:14;;;;;;;;;;;;;;;;;;5070759;28;19938;-61
2023/05/09 03:58:40;;;;;;;;;;;;;;;;;;5070171;28;19920;-61
2023/05/09 04:01:06;;;;;;;;;;;;;;;;;;5064328;28;19929;-61
2023/05/09 04:03:32;;;;;;;;;;;;;;;;;;5044087;28;19941;-61
2023/05/09 04:05:58;;;;;;;;;;;;;;;;;;5055365;28;20008;-61
2023/05/09 04:08:24;;;;;;;;;;;;;;;;;;5059924;28;19974;-61
2023/05/09 04:10:51;;;;;;;;;;;;;;;;;;5059248;28;19924;-61
2023/05/09 04:13:17;;;;;;;;;;;;;;;;;;5062750;28;19928;-61
2023/05/09 04:15:43;;;;;;;;;;;;;;;;;;5063723;28;19921;-61
2023/05/09 04:18:08;;;;;;;;;;;;;;;;;;5061748;28;19928;-61
2023/05/09 04:20:34;;;;;;;;;;;;;;;;;;5068919;28;20255;-60
2023/05/09 04:23:00;;;;;;;;;;;;;;;;;;5065065;28;19936;-60
2023/05/09 04:25:28;;;;;;;;;;;;;;;;;;5059389;28;20052;-61
2023/05/09 04:27:54;;;;;;;;;;;;;;;;;;5064699;28;19925;-61
2023/05/09 04:30:20;;;;;;;;;;;;;;;;;;5057477;28;19924;-61
2023/05/09 04:32:46;;;;;;;;;;;;;;;;;;5065321;28;19964;-61
2023/05/09 04:35:12;;;;;;;;;;;;;;;;;;5065785;28;20050;-61
2023/05/09 04:37:38;;;;;;;;;;;;;;;;;;5058906;28;19920;-61
2023/05/09 04:40:04;;;;;;;;;;;;;;;;;;5056478;28;19928;-62
2023/05/09 04:42:32;;;;;;;;;;;;;;;;;;5057613;28;20306;-62
2023/05/09 04:44:58;;;;;;;;;;;;;;;;;;5062228;28;19921;-62
2023/05/09 04:47:24;;;;;;;;;;;;;;;;;;5061938;28;19925;-62
2023/05/09 04:49:50;;;;;;;;;;;;;;;;;;5069787;28;19920;-62
2023/05/09 04:52:16;;;;;;;;;;;;;;;;;;5064269;28;19920;-62
2023/05/09 04:54:42;;;;;;;;;;;;;;;;;;5068712;28;19959;-62
2023/05/09 04:57:08;;;;;;;;;;;;;;;;;;5072304;28;19930;-61
2023/05/09 04:59:34;;;;;;;;;;;;;;;;;;5060177;28;19920;-61
2023/05/09 05:02:00;;;;;;;;;;;;;;;;;;5066727;28;19978;-61
2023/05/09 05:04:26;;;;;;;;;;;;;;;;;;5067649;28;20837;-61
2023/05/09 05:06:52;;;;;;;;;;;;;;;;;;5068496;28;19943;-61
2023/05/09 05:09:18;;;;;;;;;;;;;;;;;;5064402;28;20366;-62
2023/05/09 05:11:44;;;;;;;;;;;;;;;;;;5071697;28;19932;-62
2023/05/09 05:14:10;;;;;;;;;;;;;;;;;;5069196;28;19931;-62
2023/05/09 05:16:36;;;;;;;;;;;;;;;;;;5066056;28;20321;-62
2023/05/09 05:19:02;;;;;;;;;;;;;;;;;;5067481;28;19963;-62
2023/05/09 05:21:28;;;;;;;;;;;;;;;;;;5071218;28;19939;-61
2023/05/09 05:23:54;;;;;;;;;;;;;;;;;;5071652;28;20378;-61
2023/05/09 05:26:20;;;;;;;;;;;;;;;;;;5064559;28;19927;-61
2023/05/09 05:28:46;;;;;;;;;;;;;;;;;;5067000;28;19935;-61
2023/05/09 05:31:12;;;;;;;;;;;;;;;;;;5067588;28;20297;-62
2023/05/09 05:33:38;;;;;;;;;;;;;;;;;;5071323;28;19924;-61
2023/05/09 05:36:04;;;;;;;;;;;;;;;;;;5066967;28;19924;-61
2023/05/09 05:38:30;;;;;;;;;;;;;;;;;;5070523;28;20389;-61
2023/05/09 05:40:56;;;;;;;;;;;;;;;;;;5066384;28;19924;-61
2023/05/09 05:43:22;;;;;;;;;;;;;;;;;;5066711;28;20382;-61
2023/05/09 05:45:48;;;;;;;;;;;;;;;;;;5068706;28;19926;-61
2023/05/09 05:48:13;;;;;;;;;;;;;;;;;;5071307;28;19926;-61
2023/05/09 05:50:39;;;;;;;;;;;;;;;;;;5086592;22;20369;-64
2023/05/09 05:53:05;;;;;;;;;;;;;;;;;;5086620;28;20007;-65
2023/05/09 05:55:31;;;;;;;;;;;;;;;;;;5077424;28;20369;-64
2023/05/09 05:57:57;;;;;;;;;;;;;;;;;;5080129;28;19924;-65
2023/05/09 06:00:23;;;;;;;;;;;;;;;;;;5079100;28;19993;-65
2023/05/09 06:02:49;;;;;;;;;;;;;;;;;;5081648;28;20441;-64
2023/05/09 06:05:15;;;;;;;;;;;;;;;;;;5089641;28;19924;-65
2023/05/09 06:07:43;;;;;;;;;;;;;;;;;;5087899;28;19924;-64
2023/05/09 06:10:08;;;;;;;;;;;;;;;;;;5085215;28;20278;-65
2023/05/09 06:12:34;;;;;;;;;;;;;;;;;;5092048;28;19939;-65
2023/05/09 06:15:00;;;;;;;;;;;;;;;;;;5086673;28;20311;-65
2023/05/09 06:17:26;;;;;;;;;;;;;;;;;;5085996;28;19923;-65
2023/05/09 06:19:52;;;;;;;;;;;;;;;;;;5082773;28;19924;-65
2023/05/09 06:22:18;;;;;;;;;;;;;;;;;;5078484;28;19928;-65
2023/05/09 06:24:44;;;;;;;;;;;;;;;;;;5084002;28;19927;-65
2023/05/09 06:27:10;;;;;;;;;;;;;;;;;;5086556;28;19928;-65
2023/05/09 06:29:36;;;;;;;;;;;;;;;;;;5092209;28;20323;-65
2023/05/09 06:32:02;;;;;;;;;;;;;;;;;;5099081;28;19924;-65
2023/05/09 06:34:27;;;;;;;;;;;;;;;;;;5093331;28;19970;-65
2023/05/09 06:36:53;;;;;;;;;;;;;;;;;;5087794;28;20007;-65
2023/05/09 06:39:19;;;;;;;;;;;;;;;;;;5088635;28;20576;-63
2023/05/09 06:41:45;;;;;;;;;;;;;;;;;;5084933;28;19947;-64
2023/05/09 06:44:11;;;;;;;;;;;;;;;;;;5087816;28;20018;-64
2023/05/09 06:46:37;;;;;;;;;;;;;;;;;;5082811;28;19969;-64
2023/05/09 06:49:04;;;;;;;;;;;;;;;;;;5088570;28;19920;-64
2023/05/09 06:51:30;;;;;;;;;;;;;;;;;;5086651;28;19960;-67
2023/05/09 06:53:56;;;;;;;;;;;;;;;;;;5080156;28;19967;-67
2023/05/09 06:56:24;;;;;;;;;;;;;;;;;;5087143;28;20662;-67
2023/05/09 06:58:50;;;;;;;;;;;;;;;;;;5088077;28;19934;-67
2023/05/09 07:01:16;;;;;;;;;;;;;;;;;;5065817;28;19924;-68
2023/05/09 07:03:42;;;;;;;;;;;;;;;;;;5079145;28;19923;-67
2023/05/09 07:06:08;;;;;;;;;;;;;;;;;;5074392;28;19951;-68
2023/05/09 07:08:34;;;;;;;;;;;;;;;;;;5078245;28;19923;-67
2023/05/09 07:11:00;;;;;;;;;;;;;;;;;;5089463;28;19996;-66
2023/05/09 07:13:26;;;;;;;;;;;;;;;;;;5088253;28;20365;-65
2023/05/09 07:15:52;;;;;;;;;;;;;;;;;;5083100;28;19927;-67
2023/05/09 07:18:17;;;;;;;;;;;;;;;;;;5088480;28;19935;-66
2023/05/09 07:20:43;;;;;;;;;;;;;;;;;;5080079;28;19928;-67
2023/05/09 07:23:09;;;;;;;;;;;;;;;;;;5081263;28;19924;-67
2023/05/09 07:25:35;;;;;;;;;;;;;;;;;;5079630;28;20065;-68
2023/05/09 07:28:01;;;;;;;;;;;;;;;;;;5086571;28;19924;-67
2023/05/09 07:30:27;;;;;;;;;;;;;;;;;;5090063;28;20278;-67
2023/05/09 07:32:53;;;;;;;;;;;;;;;;;;5088795;28;19920;-66
2023/05/09 07:35:19;;;;;;;;;;;;;;;;;;5089904;28;19996;-66
2023/05/09 07:37:45;;;;;;;;;;;;;;;;;;5089979;28;19924;-66
2023/05/09 07:40:11;;;;;;;;;;;;;;;;;;5078077;28;19920;-67
2023/05/09 07:42:37;;;;;;;;;;;;;;;;;;5086221;28;19928;-66
2023/05/09 07:45:04;;;;;;;;;;;;;;;;;;5090322;28;19924;-68
2023/05/09 07:47:30;;;;;;;;;;;;;;;;;;5089878;28;19930;-68
2023/05/09 07:49:56;;;;;;;;;;;;;;;;;;5089795;28;19920;-67
2023/05/09 07:52:22;;;;;;;;;;;;;;;;;;5092034;28;19932;-67
2023/05/09 07:54:48;;;;;;;;;;;;;;;;;;5091087;28;20033;-68
2023/05/09 07:57:15;;;;;;;;;;;;;;;;;;5090125;28;20580;-67
2023/05/09 07:59:41;;;;;;;;;;;;;;;;;;5092377;28;19927;-67
2023/05/09 08:02:07;;;;;;;;;;;;;;;;;;5090999;28;19920;-68
2023/05/09 08:04:33;;;;;;;;;;;;;;;;;;5079287;28;20375;-68
2023/05/09 08:07:02;;;;;;;;;;;;;;;;;;5081253;28;19928;-69
2023/05/09 08:09:28;;;;;;;;;;;;;;;;;;5066766;28;20301;-68
2023/05/09 08:11:54;;;;;;;;;;;;;;;;;;5102360;28;19927;-69
2023/05/09 08:14:20;;;;;;;;;;;;;;;;;;5093501;28;20374;-68
2023/05/09 08:16:46;;;;;;;;;;;;;;;;;;5088962;28;20684;-68
2023/05/09 08:19:12;;;;;;;;;;;;;;;;;;5089547;28;19924;-68
2023/05/09 08:21:38;;;;;;;;;;;;;;;;;;5078899;28;19920;-68
2023/05/09 08:24:06;;;;;;;;;;;;;;;;;;5083286;28;19924;-66
2023/05/09 08:26:32;;;;;;;;;;;;;;;;;;5073823;28;20313;-67
2023/05/09 08:28:58;;;;;;;;;;;;;;;;;;5069973;28;20361;-69
2023/05/09 08:31:25;;;;;;;;;;;;;;;;;;5095349;28;20003;-67
2023/05/09 08:33:51;;;;;;;;;;;;;;;;;;5112147;28;19930;-67
2023/05/09 08:36:17;;;;;;;;;;;;;;;;;;5093375;28;20518;-68
2023/05/09 08:38:43;;;;;;;;;;;;;;;;;;5091953;28;19926;-68
2023/05/09 08:41:09;;;;;;;;;;;;;;;;;;5091533;28;19924;-68
2023/05/09 08:43:35;;;;;;;;;;;;;;;;;;5090280;28;19931;-68
2023/05/09 08:46:01;;;;;;;;;;;;;;;;;;5097225;28;19924;-68
2023/05/09 08:48:27;;;;;;;;;;;;;;;;;;5110706;28;19920;-68
2023/05/09 08:50:53;;;;;;;;;;;;;;;;;;5109792;28;19963;-68
2023/05/09 08:53:18;;;;;;;;;;;;;;;;;;5093277;28;19934;-68
2023/05/09 08:55:44;;;;;;;;;;;;;;;;;;5091519;28;19920;-68
2023/05/09 08:58:10;;;;;;;;;;;;;;;;;;5090342;28;20373;-68
2023/05/09 09:00:39;;;;;;;;;;;;;;;;;;5073209;28;19924;-68
2023/05/09 09:03:06;;;;;;;;;;;;;;;;;;5091636;28;19924;-69
2023/05/09 09:05:32;;;;;;;;;;;;;;;;;;5090329;28;19924;-69
2023/05/09 09:07:58;;;;;;;;;;;;;;;;;;5102649;28;19924;-69
2023/05/09 09:10:25;;;;;;;;;;;;;;;;;;5092293;28;20289;-68
2023/05/09 09:12:51;;;;;;;;;;;;;;;;;;5103166;28;19923;-68
2023/05/09 09:15:17;;;;;;;;;;;;;;;;;;5110455;28;20242;-68
2023/05/09 09:17:43;;;;;;;;;;;;;;;;;;5091470;28;19920;-68
2023/05/09 09:20:09;;;;;;;;;;;;;;;;;;5099362;28;19927;-69
2023/05/09 09:22:35;;;;;;;;;;;;;;;;;;5089901;28;19923;-69
2023/05/09 09:25:01;;;;;;;;;;;;;;;;;;5090078;28;19927;-68
2023/05/09 09:27:27;;;;;;;;;;;;;;;;;;5091154;28;20298;-68
2023/05/09 09:29:53;;;;;;;;;;;;;;;;;;5091259;28;19965;-68
2023/05/09 09:32:19;;;;;;;;;;;;;;;;;;5072989;28;19931;-68
2023/05/09 09:34:45;;;;;;;;;;;;;;;;;;5098015;28;20320;-68
2023/05/09 09:37:10;;;;;;;;;;;;;;;;;;5093193;28;19920;-68
2023/05/09 09:39:36;;;;;;;;;;;;;;;;;;5112508;28;20357;-68
2023/05/09 09:42:02;;;;;;;;;;;;;;;;;;5113351;28;19923;-68
2023/05/09 09:44:29;;;;;;;;;;;;;;;;;;5095059;28;19920;-68
2023/05/09 09:46:55;;;;;;;;;;;;;;;;;;5093334;28;19935;-69
2023/05/09 09:49:21;;;;;;;;;;;;;;;;;;5093238;28;19928;-69
2023/05/09 09:51:47;;;;;;;;;;;;;;;;;;5093328;28;19932;-69
2023/05/09 09:54:13;;;;;;;;;;;;;;;;;;5094812;28;19920;-69
2023/05/09 09:56:39;;;;;;;;;;;;;;;;;;5093275;28;19946;-69
2023/05/09 09:59:05;;;;;;;;;;;;;;;;;;5102852;28;19968;-70
2023/05/09 10:01:31;;;;;;;;;;;;;;;;;;5095126;28;20315;-68
2023/05/09 10:03:57;;;;;;;;;;;;;;;;;;5093015;28;19997;-70
2023/05/09 10:06:23;;;;;;;;;;;;;;;;;;5093353;28;19928;-68
2023/05/09 10:08:49;;;;;;;;;;;;;;;;;;5092981;28;19921;-69
2023/05/09 10:11:15;;;;;;;;;;;;;;;;;;5094172;28;19927;-69
2023/05/09 10:13:41;;;;;;;;;;;;;;;;;;5094397;28;19920;-69
2023/05/09 10:16:07;;;;;;;;;;;;;;;;;;5102831;28;19924;-68
2023/05/09 10:18:33;;;;;;;;;;;;;;;;;;5093826;28;19926;-69
2023/05/09 10:21:00;;;;;;;;;;;;;;;;;;5104252;28;19920;-69
2023/05/09 10:23:26;;;;;;;;;;;;;;;;;;5099938;28;19920;-70
2023/05/09 10:25:52;;;;;;;;;;;;;;;;;;5087825;28;19924;-69
2023/05/09 10:28:18;;;;;;;;;;;;;;;;;;5064906;28;19985;-69
2023/05/09 10:30:44;;;;;;;;;;;;;;;;;;5085575;28;20297;-69
2023/05/09 10:33:10;;;;;;;;;;;;;;;;;;5083442;28;19960;-68
2023/05/09 10:35:36;;;;;;;;;;;;;;;;;;5089515;28;19966;-68
2023/05/09 10:38:02;;;;;;;;;;;;;;;;;;5088153;28;19967;-71
2023/05/09 10:40:28;;;;;;;;;;;;;;;;;;5091542;28;19924;-71
2023/05/09 10:42:54;;;;;;;;;;;;;;;;;;5089385;28;19982;-70
2023/05/09 10:45:20;;;;;;;;;;;;;;;;;;5087664;28;19928;-68
2023/05/09 10:47:46;;;;;;;;;;;;;;;;;;5083249;28;19970;-68
2023/05/09 10:50:12;;;;;;;;;;;;;;;;;;5089918;27;19920;-68
2023/05/09 10:52:38;;;;;;;;;;;;;;;;;;5090054;28;20048;-68
2023/05/09 10:55:04;;;;;;;;;;;;;;;;;;5090998;28;19938;-68
2023/05/09 10:57:30;;;;;;;;;;;;;;;;;;5085346;28;19931;-68
2023/05/09 10:59:56;;;;;;;;;;;;;;;;;;5092841;28;19924;-68
2023/05/09 11:02:29;;;;;;;;;;;;;;;;;;5089424;28;19992;-69
2023/05/09 11:04:55;;;;;;;;;;;;;;;;;;5105311;28;19926;-68
2023/05/09 11:07:21;;;;;;;;;;;;;;;;;;5080353;28;19928;-69
2023/05/09 11:09:49;;;;;;;;;;;;;;;;;;5092307;28;21354;-69
2023/05/09 11:12:15;;;;;;;;;;;;;;;;;;5091156;28;20030;-69
2023/05/09 11:14:41;;;;;;;;;;;;;;;;;;5090271;28;19950;-69
2023/05/09 11:17:07;;;;;;;;;;;;;;;;;;5090471;28;19924;-69
2023/05/09 11:19:33;;;;;;;;;;;;;;;;;;5093039;28;19920;-69
2023/05/09 11:21:58;;;;;;;;;;;;;;;;;;5096228;28;20408;-70
2023/05/09 11:24:29;;;;;;;;;;;;;;;;;;5090671;28;19977;-73
2023/05/09 11:26:55;;;;;;;;;;;;;;;;;;5089072;28;19924;-70
2023/05/09 11:29:21;;;;;;;;;;;;;;;;;;5090951;28;19924;-70
2023/05/09 11:31:47;;;;;;;;;;;;;;;;;;5090102;28;19995;-69
2023/05/09 11:34:13;;;;;;;;;;;;;;;;;;5091417;28;19920;-72
2023/05/09 11:36:39;;;;;;;;;;;;;;;;;;5095344;28;20529;-70
2023/05/09 11:39:05;;;;;;;;;;;;;;;;;;5087753;28;19924;-69
2023/05/09 11:41:31;;;;;;;;;;;;;;;;;;5091214;28;19959;-68
2023/05/09 11:43:59;;;;;;;;;;;;;;;;;;5092566;28;19986;-70
2023/05/09 11:46:25;;;;;;;;;;;;;;;;;;5091022;28;19921;-70
2023/05/09 11:48:51;;;;;;;;;;;;;;;;;;5091201;28;20281;-70
2023/05/09 11:51:17;;;;;;;;;;;;;;;;;;5092291;28;19925;-68
2023/05/09 11:53:45;;;;;;;;;;;;;;;;;;5091638;28;19967;-69
2023/05/09 11:56:11;;;;;;;;;;;;;;;;;;5101133;28;20373;-69
2023/05/09 11:58:37;;;;;;;;;;;;;;;;;;5090601;28;19943;-69
2023/05/09 12:01:03;;;;;;;;;;;;;;;;;;5092319;28;19924;-68
2023/05/09 12:03:29;;;;;;;;;;;;;;;;;;5089120;28;19924;-68
2023/05/09 12:05:55;;;;;;;;;;;;;;;;;;5086009;28;19920;-70
2023/05/09 12:08:21;;;;;;;;;;;;;;;;;;5086933;28;19931;-72
2023/05/09 12:10:47;;;;;;;;;;;;;;;;;;5094307;28;19999;-68
2023/05/09 12:13:14;;;;;;;;;;;;;;;;;;5091930;28;20388;-67
2023/05/09 12:15:40;;;;;;;;;;;;;;;;;;5088942;28;19931;-67
2023/05/09 12:18:06;;;;;;;;;;;;;;;;;;5091684;28;19928;-67
2023/05/09 12:20:32;;;;;;;;;;;;;;;;;;5090646;28;20373;-66
2023/05/09 12:22:58;;;;;;;;;;;;;;;;;;5090493;28;19982;-68
2023/05/09 12:25:24;;;;;;;;;;;;;;;;;;5090126;28;19920;-68
2023/05/09 12:27:53;;;;;;;;;;;;;;;;;;5107273;28;19974;-68
2023/05/09 12:30:19;;;;;;;;;;;;;;;;;;5092015;28;19927;-68
2023/05/09 12:32:45;;;;;;;;;;;;;;;;;;5086714;28;19924;-68
2023/05/09 12:35:11;;;;;;;;;;;;;;;;;;5091722;28;19920;-67
2023/05/09 12:37:37;;;;;;;;;;;;;;;;;;5090444;28;19927;-68
2023/05/09 12:40:03;;;;;;;;;;;;;;;;;;5086092;28;19931;-68
2023/05/09 12:42:29;;;;;;;;;;;;;;;;;;5091864;28;19920;-68
2023/05/09 12:44:56;;;;;;;;;;;;;;;;;;5087054;28;19956;-68
2023/05/09 12:47:21;;;;;;;;;;;;;;;;;;5073379;28;19935;-68
2023/05/09 12:49:47;;;;;;;;;;;;;;;;;;5089981;28;19928;-67
2023/05/09 12:52:13;;;;;;;;;;;;;;;;;;5091750;28;20381;-68
2023/05/09 12:54:39;;;;;;;;;;;;;;;;;;5071386;28;19920;-68
2023/05/09 12:57:05;;;;;;;;;;;;;;;;;;5088465;28;19947;-67
2023/05/09 12:59:32;;;;;;;;;;;;;;;;;;5082245;28;20016;-67
2023/05/09 13:01:58;;;;;;;;;;;;;;;;;;5084187;28;19956;-69
2023/05/09 13:04:23;;;;;;;;;;;;;;;;;;5089470;28;19928;-68
2023/05/09 13:06:49;;;;;;;;;;;;;;;;;;5089335;28;19920;-68
2023/05/09 13:09:15;;;;;;;;;;;;;;;;;;5090756;28;19920;-68
2023/05/09 13:11:41;;;;;;;;;;;;;;;;;;5089945;28;19920;-68
2023/05/09 13:14:07;;;;;;;;;;;;;;;;;;5091503;28;19924;-69
2023/05/09 13:16:33;;;;;;;;;;;;;;;;;;5079471;28;20331;-69
2023/05/09 13:19:00;;;;;;;;;;;;;;;;;;5093830;28;19924;-70
2023/05/09 13:21:26;;;;;;;;;;;;;;;;;;5089081;28;19969;-68
2023/05/09 13:23:52;;;;;;;;;;;;;;;;;;5085803;28;20519;-68
2023/05/09 13:26:18;;;;;;;;;;;;;;;;;;5084037;28;19924;-68
2023/05/09 13:28:44;;;;;;;;;;;;;;;;;;5088025;28;19946;-69
2023/05/09 13:31:10;;;;;;;;;;;;;;;;;;5085394;28;20354;-69
2023/05/09 13:33:36;;;;;;;;;;;;;;;;;;5084052;28;20013;-68
2023/05/09 13:36:02;;;;;;;;;;;;;;;;;;5082945;28;20023;-69
2023/05/09 13:38:35;;;;;;;;;;;;;;;;;;5089042;28;20317;-68
2023/05/09 13:41:01;;;;;;;;;;;;;;;;;;5086335;28;20288;-69
2023/05/09 13:43:27;;;;;;;;;;;;;;;;;;5089085;28;19931;-70
2023/05/09 13:45:53;;;;;;;;;;;;;;;;;;5087800;28;19924;-68
2023/05/09 13:48:19;;;;;;;;;;;;;;;;;;5090880;28;20323;-69
2023/05/09 13:50:45;;;;;;;;;;;;;;;;;;5090100;28;19971;-69
2023/05/09 13:53:11;;;;;;;;;;;;;;;;;;5091231;28;20286;-68
2023/05/09 13:55:37;;;;;;;;;;;;;;;;;;5089692;28;19930;-69
2023/05/09 13:58:03;;;;;;;;;;;;;;;;;;5073861;28;19927;-69
2023/05/09 14:00:29;;;;;;;;;;;;;;;;;;5087611;28;20266;-68
2023/05/09 14:02:55;;;;;;;;;;;;;;;;;;5084374;28;20330;-69
2023/05/09 14:05:21;;;;;;;;;;;;;;;;;;5086727;28;19933;-69
2023/05/09 14:07:47;;;;;;;;;;;;;;;;;;5090907;28;19920;-69
2023/05/09 14:10:13;;;;;;;;;;;;;;;;;;5088605;28;19963;-69
2023/05/09 14:12:39;;;;;;;;;;;;;;;;;;5090936;28;19982;-69
2023/05/09 14:15:05;;;;;;;;;;;;;;;;;;5087293;28;20332;-69
2023/05/09 14:17:31;;;;;;;;;;;;;;;;;;5090610;28;19928;-69
2023/05/09 14:19:57;;;;;;;;;;;;;;;;;;5086552;28;19924;-68
2023/05/09 14:22:23;;;;;;;;;;;;;;;;;;5089847;28;19924;-67
2023/05/09 14:24:49;;;;;;;;;;;;;;;;;;5088107;28;20042;-69
2023/05/09 14:27:15;;;;;;;;;;;;;;;;;;5087939;28;19931;-69
2023/05/09 14:29:41;;;;;;;;;;;;;;;;;;5091066;28;19924;-70
2023/05/09 14:32:11;;;;;;;;;;;;;;;;;;5085753;28;19924;-64
2023/05/09 14:34:37;;;;;;;;;;;;;;;;;;5092029;28;19924;-65
2023/05/09 14:37:03;;;;;;;;;;;;;;;;;;5091448;28;19927;-65
2023/05/09 14:39:29;;;;;;;;;;;;;;;;;;5071853;28;19920;-65
2023/05/09 14:41:55;;;;;;;;;;;;;;;;;;5090925;28;19921;-64
2023/05/09 14:44:23;;;;;;;;;;;;;;;;;;5089042;28;19934;-64
2023/05/09 14:46:49;;;;;;;;;;;;;;;;;;5087293;28;19953;-64
2023/05/09 14:49:15;;;;;;;;;;;;;;;;;;5085808;28;20018;-65
2023/05/09 14:51:41;;;;;;;;;;;;;;;;;;5088314;28;19969;-66
2023/05/09 14:54:07;;;;;;;;;;;;;;;;;;5091950;28;19923;-66
2023/05/09 14:56:33;;;;;;;;;;;;;;;;;;5089701;28;19928;-65
2023/05/09 14:58:59;;;;;;;;;;;;;;;;;;5088361;28;19920;-65
2023/05/09 15:01:25;;;;;;;;;;;;;;;;;;5089414;28;19928;-65
2023/05/09 15:03:50;;;;;;;;;;;;;;;;;;5089956;28;19942;-64
2023/05/09 15:06:17;;;;;;;;;;;;;;;;;;5063514;22;19925;-62
2023/05/09 15:08:43;;;;;;;;;;;;;;;;;;5054094;28;19925;-62
2023/05/09 15:11:09;;;;;;;;;;;;;;;;;;5044180;28;20020;-62
2023/05/09 15:13:35;;;;;;;;;;;;;;;;;;5051621;28;20015;-62
2023/05/09 15:16:00;;;;;;;;;;;;;;;;;;5047735;28;19921;-62
2023/05/09 15:18:27;;;;;;;;;;;;;;;;;;5035479;28;19920;-63
2023/05/09 15:20:53;;;;;;;;;;;;;;;;;;5052502;28;20597;-63
2023/05/09 15:23:19;;;;;;;;;;;;;;;;;;5051800;28;20011;-62
2023/05/09 15:25:45;;;;;;;;;;;;;;;;;;5050599;28;19964;-61
2023/05/09 15:28:11;;;;;;;;;;;;;;;;;;5064259;28;19929;-61
2023/05/09 15:30:39;;;;;;;;;;;;;;;;;;5050736;28;19993;-62
2023/05/09 15:33:06;;;;;;;;;;;;;;;;;;5051080;28;20287;-61
2023/05/09 15:35:31;;;;;;;;;;;;;;;;;;5051961;28;19929;-61
2023/05/09 15:37:57;;;;;;;;;;;;;;;;;;5048134;28;19990;-61
2023/05/09 15:40:23;;;;;;;;;;;;;;;;;;5050907;28;19927;-61
2023/05/09 15:42:49;;;;;;;;;;;;;;;;;;5049187;28;19940;-61
2023/05/09 15:45:15;;;;;;;;;;;;;;;;;;5048789;28;19931;-62
2023/05/09 15:47:41;;;;;;;;;;;;;;;;;;5049295;28;19933;-61
2023/05/09 15:50:07;;;;;;;;;;;;;;;;;;5059717;28;20265;-61
2023/05/09 15:52:33;;;;;;;;;;;;;;;;;;5051101;28;19924;-61
2023/05/09 15:54:59;;;;;;;;;;;;;;;;;;5050830;28;19921;-61
2023/05/09 15:57:25;;;;;;;;;;;;;;;;;;5050876;28;19968;-62
2023/05/09 15:59:54;;;;;;;;;;;;;;;;;;5051786;28;19986;-61
2023/05/09 16:02:20;;;;;;;;;;;;;;;;;;5067043;28;19921;-61
2023/05/09 16:04:46;;;;;;;;;;;;;;;;;;5041318;28;19978;-61
2023/05/09 16:07:12;;;;;;;;;;;;;;;;;;5023673;28;19928;-62
2023/05/09 16:09:38;;;;;;;;;;;;;;;;;;5050547;28;19971;-61
2023/05/09 16:12:04;;;;;;;;;;;;;;;;;;5049551;28;19964;-61
2023/05/09 16:14:30;;;;;;;;;;;;;;;;;;5047558;28;19947;-61
2023/05/09 16:16:56;;;;;;;;;;;;;;;;;;5061959;28;19925;-61
2023/05/09 16:19:22;;;;;;;;;;;;;;;;;;5050356;28;19956;-61
2023/05/09 16:21:48;;;;;;;;;;;;;;;;;;5049200;28;19971;-61
2023/05/09 16:24:14;;;;;;;;;;;;;;;;;;5050362;28;19929;-61
2023/05/09 16:26:40;;;;;;;;;;;;;;;;;;5051259;28;19925;-61
2023/05/09 16:29:05;;;;;;;;;;;;;;;;;;5050407;28;19924;-61
2023/05/09 16:31:31;;;;;;;;;;;;;;;;;;5049265;28;19970;-62
2023/05/09 16:33:57;;;;;;;;;;;;;;;;;;5047000;28;21011;-61
2023/05/09 16:36:23;;;;;;;;;;;;;;;;;;5052536;28;19925;-61
2023/05/09 16:38:49;;;;;;;;;;;;;;;;;;5050446;28;19920;-62